createdAt,value
2019-04-28T03:39:50.593Z,0.00
2019-04-28T03:40:57.289Z,0.00
2019-04-28T03:41:50.210Z,0.00
2019-04-28T05:09:42.665Z,33.75
2019-04-28T05:10:41.605Z,33.75
2019-04-28T05:12:11.424Z,33.75
2019-04-28T05:12:43.341Z,33.75
2019-04-28T05:14:07.610Z,33.75
2019-04-28T05:14:41.463Z,39.38
2019-04-28T05:15:41.517Z,39.38
2019-04-28T05:16:41.798Z,39.38
2019-04-28T05:17:43.339Z,39.38
2019-04-28T05:18:49.907Z,39.38
2019-04-28T05:19:43.854Z,39.38
2019-04-28T05:20:42.362Z,39.38
2019-04-28T05:21:41.283Z,45.00
2019-04-28T05:22:42.679Z,45.00
2019-04-28T05:23:42.894Z,45.00
2019-04-28T05:24:41.172Z,45.00
2019-04-28T05:25:42.860Z,45.00
2019-04-28T05:38:57.270Z,56.25
2019-04-28T05:39:19.570Z,56.25
2019-04-28T05:40:20.617Z,56.25
2019-04-28T05:41:19.632Z,56.25
2019-04-28T06:36:20.257Z,146.25
2019-04-28T06:37:20.227Z,146.25
2019-04-28T06:39:50.653Z,151.88
2019-04-28T06:40:50.579Z,151.88
2019-04-28T06:41:51.740Z,151.88
2019-04-28T06:42:50.534Z,151.88
2019-04-28T06:43:50.618Z,151.88
2019-04-28T06:44:50.471Z,157.50
2019-04-28T06:45:50.501Z,157.50
2019-04-28T06:46:50.413Z,157.50
2019-04-28T06:47:50.386Z,157.50
2019-04-28T06:48:52.468Z,157.50
2019-04-28T06:49:50.396Z,163.13
2019-04-28T06:50:50.434Z,163.13
2019-04-28T06:51:50.311Z,163.13
2019-04-28T06:52:50.351Z,168.75
2019-04-28T06:53:50.230Z,168.75
2019-04-28T06:54:50.290Z,174.38
2019-04-28T06:55:50.321Z,168.75
2019-04-28T06:56:50.296Z,168.75
2019-04-28T06:57:50.175Z,174.38
2019-04-28T06:58:58.735Z,174.38
2019-04-28T06:59:50.098Z,174.38
2019-04-28T07:00:50.112Z,180.00
2019-04-28T07:01:50.065Z,180.00
2019-04-28T07:02:50.131Z,180.00
2019-04-28T07:03:49.978Z,180.00
2019-04-28T07:05:01.154Z,185.63
2019-04-28T07:05:49.932Z,185.63
2019-04-28T07:06:49.947Z,185.63
2019-04-28T07:07:49.878Z,191.25
2019-04-28T07:08:50.943Z,196.88
2019-04-28T07:09:49.827Z,202.50
2019-04-28T07:10:49.846Z,202.50
2019-04-28T07:11:49.753Z,202.50
2019-04-28T07:12:51.841Z,202.50
2019-04-28T07:13:49.722Z,202.50
2019-04-28T07:15:13.712Z,208.13
2019-04-28T07:15:49.629Z,208.13
2019-04-28T07:16:50.701Z,208.13
2019-04-28T07:17:49.568Z,208.13
2019-04-28T07:19:49.539Z,208.13
2019-04-28T07:20:57.188Z,208.13
2019-04-28T07:21:49.467Z,213.75
2019-04-28T07:23:12.572Z,213.75
2019-04-28T07:23:49.426Z,213.75
2019-04-28T07:24:49.400Z,213.75
2019-04-28T07:25:49.382Z,213.75
2019-04-28T07:26:49.341Z,213.75
2019-04-28T07:28:10.332Z,213.75
2019-04-28T07:28:49.297Z,213.75
2019-04-28T07:29:49.247Z,219.38
2019-04-28T07:30:49.277Z,225.00
2019-04-28T07:31:49.215Z,219.38
2019-04-28T07:32:49.182Z,219.38
2019-04-28T07:33:49.162Z,219.38
2019-04-28T07:35:18.771Z,225.00
2019-04-28T07:35:49.092Z,236.25
2019-04-28T07:36:55.694Z,247.50
2019-04-28T07:37:49.021Z,241.88
2019-04-28T08:19:16.924Z,140.63
2019-04-28T08:20:10.486Z,140.63
2019-04-28T08:21:10.549Z,140.63
2019-04-28T08:22:10.433Z,146.25
2019-04-28T08:23:10.467Z,146.25
2019-04-28T08:24:10.384Z,146.25
2019-04-28T08:25:10.361Z,140.63
2019-04-28T08:26:10.374Z,129.38
2019-04-28T08:27:10.298Z,123.75
2019-04-28T08:28:11.288Z,118.13
2019-04-28T08:29:10.250Z,118.13
2019-04-28T08:30:11.240Z,112.50
2019-04-28T08:31:10.199Z,106.88
2019-04-28T08:32:12.281Z,101.25
2019-04-28T08:33:10.134Z,95.63
2019-04-28T08:34:11.190Z,90.00
2019-04-28T08:35:10.109Z,90.00
2019-04-28T08:36:12.142Z,84.38
2019-04-28T08:37:10.031Z,78.75
2019-04-28T08:38:11.139Z,78.75
2019-04-28T08:39:10.006Z,78.75
2019-04-28T08:40:10.013Z,78.75
2019-04-28T08:41:09.936Z,78.75
2019-04-28T08:42:12.007Z,78.75
2019-04-28T08:43:09.894Z,78.75
2019-04-28T08:44:09.945Z,78.75
2019-04-28T08:45:09.858Z,78.75
2019-04-28T08:46:11.919Z,73.13
2019-04-28T08:47:10.077Z,73.13
2019-04-28T08:48:11.842Z,73.13
2019-04-28T08:49:09.723Z,73.13
2019-04-28T08:50:09.748Z,67.50
2019-04-28T08:51:09.669Z,67.50
2019-04-28T08:52:09.645Z,67.50
2019-04-28T08:53:16.354Z,73.13
2019-04-28T08:54:09.581Z,78.75
2019-04-28T08:55:09.606Z,84.38
2019-04-28T08:56:09.530Z,84.38
2019-04-28T08:57:09.620Z,95.63
2019-04-28T08:58:09.477Z,106.88
2019-04-28T08:59:09.515Z,118.13
2019-04-28T09:00:09.581Z,129.38
2019-04-28T09:01:11.489Z,135.00
2019-04-28T09:02:09.379Z,140.63
2019-04-28T09:03:09.469Z,151.88
2019-04-28T09:04:15.649Z,157.50
2019-04-28T09:05:11.357Z,163.13
2019-04-28T09:06:09.259Z,174.38
2019-04-28T09:07:11.380Z,180.00
2019-04-28T09:08:09.244Z,185.63
2019-04-28T09:09:09.302Z,191.25
2019-04-28T09:10:09.166Z,196.88
2019-04-28T09:11:10.253Z,202.50
2019-04-28T09:12:09.137Z,213.75
2019-04-28T11:50:56.647Z,208.13
2019-04-28T11:51:52.782Z,213.75
2019-04-28T11:52:52.686Z,202.50
2019-04-28T11:53:52.633Z,196.88
2019-04-28T11:54:59.476Z,208.13
2019-04-28T11:55:52.576Z,225.00
2019-04-28T11:56:52.616Z,225.00
2019-04-28T11:57:52.538Z,253.13
2019-04-28T11:58:53.558Z,281.25
2019-04-28T11:59:54.118Z,292.50
2019-04-28T12:00:54.488Z,258.75
2019-04-28T12:01:52.444Z,253.13
2019-04-28T12:02:52.487Z,292.50
2019-04-28T12:03:52.374Z,337.50
2019-04-28T12:04:53.420Z,337.50
2019-04-28T12:05:52.311Z,337.50
2019-04-28T12:07:07.987Z,337.50
2019-04-28T12:07:52.286Z,331.88
2019-04-28T12:08:58.976Z,298.13
2019-04-28T12:10:03.749Z,247.50
2019-04-28T12:11:13.217Z,230.63
2019-04-28T12:11:52.166Z,225.00
2019-04-28T12:12:52.144Z,241.88
2019-04-28T12:14:00.028Z,253.13
2019-04-28T12:14:52.089Z,264.38
2019-04-28T12:16:28.042Z,275.63
2019-04-28T12:16:52.029Z,275.63
2019-04-28T12:17:52.064Z,253.13
2019-04-28T12:18:51.970Z,247.50
2019-04-28T12:20:12.955Z,236.25
2019-04-28T12:20:51.941Z,219.38
2019-04-28T12:22:00.559Z,196.88
2019-04-28T12:22:51.864Z,174.38
2019-04-28T12:23:53.915Z,163.13
2019-04-28T12:24:51.825Z,157.50
2019-04-28T12:26:08.588Z,146.25
2019-04-28T12:26:51.771Z,146.25
2019-04-28T12:27:51.750Z,140.63
2019-04-28T12:28:51.736Z,140.63
2019-04-28T12:29:53.789Z,140.63
2019-04-28T12:30:51.661Z,146.25
2019-04-28T12:32:06.487Z,151.88
2019-04-28T12:32:51.604Z,157.50
2019-04-28T12:34:51.560Z,180.00
2019-04-28T12:36:00.487Z,185.63
2019-04-28T12:36:51.482Z,185.63
2019-04-28T12:37:52.579Z,185.63
2019-04-28T12:38:51.421Z,191.25
2019-04-28T12:39:53.649Z,191.25
2019-04-28T12:40:51.381Z,196.88
2019-04-28T12:42:13.404Z,196.88
2019-04-28T12:42:51.340Z,202.50
2019-04-28T12:43:51.385Z,208.13
2019-04-28T12:44:51.293Z,219.38
2019-04-28T12:45:51.303Z,230.63
2019-04-28T12:46:51.255Z,247.50
2019-04-28T12:47:53.288Z,253.13
2019-04-28T12:48:51.205Z,258.75
2019-04-28T12:50:00.077Z,258.75
2019-04-28T12:50:51.120Z,253.13
2019-04-28T12:51:52.244Z,247.50
2019-04-28T12:52:51.084Z,241.88
2019-04-28T12:53:52.085Z,230.63
2019-04-28T12:54:51.046Z,230.63
2019-04-28T12:55:52.116Z,230.63
2019-04-28T12:56:50.994Z,230.63
2019-04-28T12:57:58.979Z,230.63
2019-04-28T12:58:50.922Z,225.00
2019-04-28T12:59:53.153Z,219.38
2019-04-28T13:00:50.870Z,213.75
2019-04-28T13:01:50.969Z,208.13
2019-04-28T13:02:50.829Z,208.13
2019-04-28T13:03:50.807Z,208.13
2019-04-28T13:04:50.767Z,208.13
2019-04-28T13:06:01.110Z,208.13
2019-04-28T13:06:50.694Z,213.75
2019-04-28T13:07:51.899Z,213.75
2019-04-28T13:08:50.679Z,213.75
2019-04-28T13:10:05.592Z,213.75
2019-04-28T13:10:50.624Z,213.75
2019-04-28T13:11:51.775Z,219.38
2019-04-28T13:12:50.538Z,219.38
2019-04-28T13:14:26.538Z,219.38
2019-04-28T13:14:50.482Z,225.00
2019-04-28T13:16:50.433Z,236.25
2019-04-28T13:21:52.664Z,258.75
2019-04-28T13:23:50.979Z,270.00
2019-04-28T13:24:58.726Z,270.00
2019-04-28T13:25:50.905Z,275.63
2019-04-28T13:27:50.878Z,281.25
2019-04-28T13:28:51.937Z,281.25
2019-04-28T13:29:50.810Z,281.25
2019-04-28T13:30:50.780Z,275.63
2019-04-28T13:31:52.643Z,270.00
2019-04-28T13:32:58.698Z,270.00
2019-04-28T13:33:56.411Z,270.00
2019-04-28T13:35:26.703Z,264.38
2019-04-28T13:35:50.696Z,264.38
2019-04-28T13:36:50.632Z,258.75
2019-04-28T13:37:58.255Z,258.75
2019-04-28T13:38:50.568Z,258.75
2019-04-28T13:40:28.232Z,258.75
2019-04-28T13:40:50.508Z,264.38
2019-04-28T13:41:50.577Z,270.00
2019-04-28T13:42:50.491Z,275.63
2019-04-28T13:43:50.508Z,275.63
2019-04-28T13:44:50.441Z,275.63
2019-04-28T13:45:58.333Z,270.00
2019-04-28T13:46:50.372Z,264.38
2019-04-28T14:07:43.214Z,275.63
2019-04-28T14:08:41.449Z,275.63
2019-04-28T14:09:41.340Z,281.25
2019-04-28T14:10:41.431Z,281.25
2019-04-28T14:11:41.333Z,281.25
2019-04-28T14:12:41.234Z,281.25
2019-04-28T14:13:41.307Z,275.63
2019-04-28T14:14:41.178Z,270.00
2019-04-28T14:15:41.135Z,264.38
2019-04-28T14:16:42.199Z,264.38
2019-04-28T14:17:41.080Z,264.38
2019-04-28T14:18:41.069Z,264.38
2019-04-28T14:19:41.037Z,264.38
2019-04-28T14:20:41.011Z,258.75
2019-04-28T14:21:41.052Z,258.75
2019-04-28T14:22:41.047Z,258.75
2019-04-28T14:23:41.017Z,264.38
2019-04-28T14:24:40.890Z,264.38
2019-04-28T14:25:40.869Z,264.38
2019-04-28T14:26:40.863Z,264.38
2019-04-28T14:27:40.808Z,258.75
2019-04-28T14:28:40.940Z,258.75
2019-04-28T14:29:40.758Z,253.13
2019-04-28T14:30:40.869Z,253.13
2019-04-28T14:31:40.704Z,241.88
2019-04-28T14:33:04.805Z,236.25
2019-04-28T14:33:40.651Z,225.00
2019-04-28T14:34:49.319Z,225.00
2019-04-28T14:35:40.668Z,219.38
2019-04-28T14:37:40.550Z,213.75
2019-04-28T14:39:40.493Z,219.38
2019-04-28T14:40:40.459Z,219.38
2019-04-28T14:42:03.510Z,213.75
2019-04-28T14:42:40.466Z,213.75
2019-04-28T14:43:47.290Z,213.75
2019-04-28T14:44:40.368Z,213.75
2019-04-28T14:45:47.327Z,208.13
2019-04-28T14:46:40.299Z,208.13
2019-04-28T14:48:40.303Z,208.13
2019-04-28T14:49:40.336Z,213.75
2019-04-28T14:50:40.196Z,213.75
2019-04-28T14:51:56.706Z,219.38
2019-04-28T14:52:40.144Z,225.00
2019-04-28T14:53:42.199Z,225.00
2019-04-28T14:54:40.117Z,225.00
2019-04-28T14:56:07.243Z,219.38
2019-04-28T14:56:40.100Z,213.75
2019-04-28T14:57:41.087Z,208.13
2019-04-28T14:58:40.003Z,202.50
2019-04-28T14:59:40.133Z,196.88
2019-04-28T15:00:39.943Z,196.88
2019-04-28T15:01:40.057Z,191.25
2019-04-28T15:02:54.875Z,191.25
2019-04-28T15:03:39.894Z,185.63
2019-04-28T15:36:07.567Z,219.38
2019-04-28T15:37:09.467Z,213.75
2019-04-28T15:38:01.214Z,213.75
2019-04-28T15:39:01.090Z,208.13
2019-04-28T15:40:02.148Z,202.50
2019-04-28T15:41:01.087Z,191.25
2019-04-28T15:42:22.045Z,191.25
2019-04-28T15:43:00.989Z,191.25
2019-04-28T15:44:01.973Z,191.25
2019-04-28T15:45:00.932Z,185.63
2019-04-28T15:46:17.597Z,185.63
2019-04-28T15:47:00.893Z,185.63
2019-04-28T15:48:01.848Z,185.63
2019-04-28T15:49:00.822Z,185.63
2019-04-28T15:50:00.804Z,185.63
2019-04-28T15:51:00.780Z,185.63
2019-04-28T15:52:07.522Z,180.00
2019-04-28T15:53:00.718Z,180.00
2019-04-28T15:54:01.710Z,185.63
2019-04-28T15:55:00.656Z,191.25
2019-04-28T15:56:00.653Z,185.63
2019-04-28T15:57:00.642Z,180.00
2019-04-28T15:58:08.523Z,185.63
2019-04-28T15:59:00.575Z,174.38
2019-04-28T16:00:00.538Z,168.75
2019-04-28T16:01:00.493Z,157.50
2019-04-28T16:02:01.494Z,151.88
2019-04-28T16:03:00.446Z,140.63
2019-04-28T16:04:00.422Z,135.00
2019-04-28T16:05:00.387Z,129.38
2019-04-28T16:06:22.416Z,123.75
2019-04-28T16:07:00.351Z,118.13
2019-04-28T16:08:01.333Z,112.50
2019-04-28T16:09:00.281Z,106.88
2019-04-28T16:10:09.045Z,112.50
2019-04-28T16:11:00.226Z,118.13
2019-04-28T16:13:00.199Z,106.88
2019-04-28T16:14:00.225Z,106.88
2019-04-28T16:15:00.131Z,101.25
2019-04-28T16:16:09.166Z,101.25
2019-04-28T16:17:00.105Z,101.25
2019-04-28T16:18:37.163Z,101.25
2019-04-28T16:19:00.117Z,101.25
2019-04-28T16:20:00.039Z,101.25
2019-04-28T16:20:59.986Z,101.25
2019-04-28T16:21:59.961Z,101.25
2019-04-28T16:22:59.917Z,95.63
2019-04-28T16:23:59.902Z,95.63
2019-04-28T16:34:33.502Z,90.00
2019-04-28T16:35:30.590Z,90.00
2019-04-28T16:36:30.565Z,90.00
2019-04-28T16:37:38.708Z,84.38
2019-04-28T16:38:30.523Z,84.38
2019-04-28T16:39:30.491Z,84.38
2019-04-28T16:40:30.491Z,84.38
2019-04-28T16:41:30.571Z,84.38
2019-04-28T16:42:30.401Z,84.38
2019-04-28T16:43:30.387Z,78.75
2019-04-28T16:44:30.420Z,78.75
2019-04-28T16:45:30.376Z,78.75
2019-04-28T16:46:30.321Z,78.75
2019-04-28T16:47:30.266Z,78.75
2019-04-28T16:48:30.344Z,78.75
2019-04-28T16:49:30.223Z,78.75
2019-04-28T16:50:30.248Z,78.75
2019-04-28T16:51:30.312Z,78.75
2019-04-28T16:52:30.424Z,73.13
2019-04-28T16:53:30.381Z,73.13
2019-04-28T16:54:30.432Z,73.13
2019-04-28T16:55:30.350Z,73.13
2019-04-28T16:56:30.461Z,73.13
2019-04-28T16:57:30.036Z,73.13
2019-04-28T16:58:30.037Z,73.13
2019-04-28T16:59:29.988Z,73.13
2019-04-28T17:00:29.960Z,73.13
2019-04-28T17:01:30.055Z,73.13
2019-04-28T17:02:29.940Z,73.13
2019-04-28T17:03:29.977Z,67.50
2019-04-28T17:04:29.882Z,67.50
2019-04-28T17:05:29.889Z,61.88
2019-04-28T17:06:29.797Z,61.88
2019-04-28T17:07:29.932Z,61.88
2019-04-28T17:08:29.774Z,61.88
2019-04-28T17:09:29.733Z,61.88
2019-04-28T17:10:29.690Z,61.88
2019-04-28T17:11:29.858Z,61.88
2019-04-28T17:12:30.517Z,56.25
2019-04-28T17:13:29.632Z,56.25
2019-04-28T17:14:29.590Z,56.25
2019-04-28T17:15:30.571Z,56.25
2019-04-28T17:16:29.565Z,56.25
2019-04-28T17:17:30.598Z,56.25
2019-04-28T17:18:29.452Z,56.25
2019-04-28T17:19:57.078Z,56.25
2019-04-28T17:20:29.444Z,56.25
2019-04-28T17:40:24.722Z,39.38
2019-04-28T17:41:22.378Z,39.38
2019-04-28T17:42:20.331Z,39.38
2019-04-28T17:43:20.436Z,39.38
2019-04-28T17:44:20.316Z,39.38
2019-04-28T17:45:27.208Z,39.38
2019-04-28T17:46:20.251Z,39.38
2019-04-28T17:47:21.305Z,39.38
2019-04-28T17:48:20.182Z,39.38
2019-04-28T17:49:20.171Z,33.75
2019-04-28T17:50:20.166Z,33.75
2019-04-28T17:51:22.208Z,33.75
2019-04-28T17:52:20.068Z,33.75
2019-04-28T17:53:20.094Z,33.75
2019-04-28T17:54:20.012Z,33.75
2019-04-28T17:55:21.038Z,33.75
2019-04-28T17:56:19.973Z,33.75
2019-04-28T17:57:26.683Z,33.75
2019-04-28T17:58:19.926Z,33.75
2019-04-28T17:59:20.001Z,28.13
2019-04-28T18:00:19.875Z,28.13
2019-04-28T18:01:21.924Z,28.13
2019-04-28T18:02:19.824Z,28.13
2019-04-28T18:03:19.897Z,28.13
2019-04-28T18:04:19.755Z,28.13
2019-04-28T18:05:21.849Z,28.13
2019-04-28T18:06:19.718Z,28.13
2019-04-28T18:07:19.729Z,28.13
2019-04-28T18:08:21.110Z,28.13
2019-04-28T18:09:19.766Z,28.13
2019-04-28T18:10:19.603Z,22.50
2019-04-28T18:11:19.636Z,22.50
2019-04-28T18:12:19.550Z,22.50
2019-04-28T18:13:20.573Z,22.50
2019-04-28T18:14:19.488Z,22.50
2019-04-28T18:15:21.525Z,22.50
2019-04-28T18:16:19.430Z,22.50
2019-04-28T18:17:20.546Z,16.88
2019-04-28T18:18:19.400Z,16.88
2019-04-28T18:19:19.462Z,16.88
2019-04-28T18:20:19.336Z,16.88
2019-04-28T18:21:20.441Z,16.88
2019-04-28T18:22:19.284Z,16.88
2019-04-28T18:23:21.370Z,16.88
2019-04-28T18:24:19.215Z,16.88
2019-04-28T18:25:26.308Z,11.25
2019-04-28T18:26:19.189Z,11.25
2019-04-28T18:27:20.441Z,11.25
2019-04-28T18:28:19.145Z,11.25
2019-04-28T18:29:19.131Z,11.25
2019-04-28T18:30:19.066Z,11.25
2019-04-28T18:31:19.188Z,11.25
2019-04-28T18:32:19.013Z,11.25
2019-04-28T18:33:19.078Z,11.25
2019-04-28T18:34:18.970Z,11.25
2019-04-28T18:35:19.059Z,5.63
2019-04-28T18:36:18.914Z,5.63
2019-04-28T18:37:18.944Z,5.63
2019-04-28T18:38:18.881Z,5.63
2019-04-28T18:39:18.854Z,5.63
2019-04-28T18:40:18.812Z,5.63
2019-04-28T18:41:18.876Z,5.63
2019-04-28T18:42:18.749Z,5.63
2019-04-28T18:43:19.801Z,5.63
2019-04-28T18:44:18.697Z,5.63
2019-04-28T18:45:18.701Z,5.63
2019-04-28T18:46:18.652Z,5.63
2019-04-28T18:47:18.728Z,0.00
2019-04-28T18:48:18.595Z,0.00
2019-04-28T18:49:19.647Z,0.00
2019-04-28T18:50:18.528Z,0.00
2019-04-28T18:51:18.521Z,0.00
2019-04-28T18:52:18.541Z,0.00
2019-04-28T18:53:18.438Z,0.00
2019-04-28T18:54:18.431Z,0.00
2019-04-28T18:55:18.493Z,0.00
2019-04-28T18:56:18.385Z,0.00
2019-04-28T18:57:18.413Z,0.00
2019-04-28T18:58:18.373Z,0.00
2019-04-28T18:59:18.415Z,0.00
2019-04-28T19:00:18.262Z,0.00
2019-04-28T19:01:18.319Z,0.00
2019-04-28T19:02:18.194Z,0.00
2019-04-28T19:03:18.307Z,0.00
2019-04-28T19:04:18.154Z,0.00
2019-04-28T19:05:18.251Z,0.00
2019-04-28T19:06:18.109Z,0.00
2019-04-28T19:07:18.182Z,0.00
2019-04-28T19:08:18.051Z,0.00
2019-04-28T19:09:18.034Z,0.00
2019-04-28T19:10:18.102Z,0.00
2019-04-28T19:11:18.000Z,0.00
2019-04-28T19:12:17.951Z,0.00
2019-04-28T19:13:17.906Z,0.00
2019-04-28T19:14:17.897Z,0.00
2019-04-28T19:15:18.951Z,0.00
2019-04-28T19:16:17.823Z,0.00
2019-04-28T19:17:17.792Z,0.00
2019-04-28T19:18:17.795Z,0.00
2019-04-28T19:19:18.867Z,0.00
2019-04-28T19:20:17.731Z,0.00
2019-04-28T19:21:17.727Z,0.00
2019-04-28T19:22:17.734Z,0.00
2019-04-28T19:23:17.649Z,0.00
2019-04-28T22:35:57.306Z,0.00
2019-04-28T22:36:57.267Z,0.00
2019-04-28T22:37:57.288Z,0.00
2019-04-28T22:38:57.211Z,0.00
2019-04-28T22:39:57.194Z,0.00
2019-04-28T22:40:57.218Z,0.00
2019-04-28T22:41:58.236Z,0.00
2019-04-28T22:42:57.101Z,0.00
2019-04-28T22:43:57.118Z,0.00
2019-04-28T22:44:57.133Z,0.00
2019-04-28T22:45:57.021Z,0.00
2019-04-28T22:46:56.990Z,0.00
2019-04-28T22:47:56.963Z,0.00
2019-04-28T22:48:56.941Z,0.00
2019-04-28T22:49:57.982Z,0.00
2019-04-28T22:50:56.878Z,0.00
2019-04-28T22:51:56.938Z,0.00
2019-04-28T22:52:56.836Z,0.00
2019-04-28T22:53:56.882Z,0.00
2019-04-28T22:54:56.769Z,0.00
2019-04-28T22:55:58.837Z,0.00
2019-04-28T22:56:56.723Z,0.00
2019-04-28T22:57:56.805Z,0.00
2019-04-28T22:58:56.663Z,0.00
2019-04-28T22:59:58.711Z,0.00
2019-04-28T23:00:56.610Z,0.00
2019-04-28T23:02:56.969Z,0.00
2019-04-28T23:03:56.532Z,0.00
